Meteorología y climatología de Navarra
Datos de la estación - Meteo Navarra

Estación de Tafalla GN

Altitud 430 m.


Datos desde el 16/09/2020 hasta el 17/09/2020 en horario solar
Los datos son PROVISIONALES

Anterior Página 1 de 1 Siguiente Descargar: Formato para Excel 2000 o superior   Formato csv   Formato para OpenOffice Calc
Fecha Temperatura Humedad relativa Radiación global Insolación Precipitación Vel. viento 10 m Vel. viento 10 m Dir. viento 10 m
ºC % W/m² s l/m² m/s km/h º
16/09/2020 0:00 22.3 50 0.0 0 0.0 1.7 6.0 27
16/09/2020 0:10 22.4 50 0.0 0 0.0 2.2 7.8 23
16/09/2020 0:20 22.3 50 0.0 0 0.0 2.1 7.4 28
16/09/2020 0:30 22.0 51 0.0 0 0.0 1.8 6.6 33
16/09/2020 0:40 21.8 52 0.0 0 0.0 1.9 6.8 28
16/09/2020 0:50 21.8 52 0.0 0 0.0 2.3 8.1 22
16/09/2020 1:00 21.2 54 0.0 0 0.0 1.6 5.6 35
16/09/2020 1:10 21.1 54 0.0 0 0.0 1.6 5.9 24
16/09/2020 1:20 21.4 53 0.0 0 0.0 0.6 2.1 352
16/09/2020 1:30 20.8 54 0.0 0 0.0 1.0 3.6 290
16/09/2020 1:40 20.7 55 0.0 0 0.0 1.7 5.9 285
16/09/2020 1:50 20.3 58 0.0 0 0.0 2.7 9.7 281
16/09/2020 2:00 20.2 59 0.0 0 0.0 2.7 9.8 286
16/09/2020 2:10 20.2 59 0.0 0 0.0 2.6 9.2 288
16/09/2020 2:20 19.8 60 0.0 0 0.0 1.6 5.8 304
16/09/2020 2:30 19.1 61 0.0 0 0.0 0.5 1.8 38
16/09/2020 2:40 19.1 60 0.0 0 0.0 0.8 2.7 30
16/09/2020 2:50 19.0 62 0.0 0 0.0 1.3 4.6 24
16/09/2020 3:00 19.1 62 0.0 0 0.0 1.5 5.3 20
16/09/2020 3:10 19.4 62 0.0 0 0.0 1.9 6.7 19
16/09/2020 3:20 19.4 62 0.0 0 0.0 2.4 8.5 21
16/09/2020 3:30 19.2 63 0.0 0 0.0 1.7 6.0 22
16/09/2020 3:40 18.9 64 0.0 0 0.0 2.0 7.2 26
16/09/2020 3:50 18.9 64 0.0 0 0.0 2.2 7.9 23
16/09/2020 4:00 18.9 65 0.0 0 0.0 2.5 9.0 22
16/09/2020 4:10 18.7 65 0.0 0 0.0 2.3 8.2 23
16/09/2020 4:20 18.3 66 0.0 0 0.0 1.3 4.7 33
16/09/2020 4:30 17.9 68 0.0 0 0.0 2.7 9.7 28
16/09/2020 4:40 18.1 66 0.0 0 0.0 2.3 8.4 24
16/09/2020 4:50 18.1 66 0.0 0 0.0 3.3 11.8 18
16/09/2020 5:00 18.0 67 0.0 0 0.0 4.1 14.6 18
16/09/2020 5:10 18.1 66 0.0 0 0.0 4.3 15.5 15
16/09/2020 5:20 17.6 68 0.0 0 0.0 3.9 14.0 11
16/09/2020 5:30 17.6 67 0.0 0 0.0 3.8 13.7 14
16/09/2020 5:40 17.9 67 0.0 0 0.0 4.3 15.6 18
16/09/2020 5:50 17.8 67 0.0 0 0.0 3.9 13.9 13
16/09/2020 6:00 18.0 65 3.1 0 0.0 3.7 13.5 14
16/09/2020 6:10 18.1 65 25.2 142 0.0 2.8 10.2 15
16/09/2020 6:20 18.0 65 44.5 600 0.0 2.3 8.1 19
16/09/2020 6:30 17.6 68 65.8 600 0.0 2.5 9.1 24
16/09/2020 6:40 17.6 68 89.3 600 0.0 3.6 12.9 21
16/09/2020 6:50 18.2 66 116.1 600 0.0 3.6 12.8 20
16/09/2020 7:00 18.4 65 143.1 600 0.0 2.9 10.4 25
16/09/2020 7:10 18.9 64 156.6 600 0.0 2.6 9.3 23
16/09/2020 7:20 19.6 62 196.6 600 0.0 2.2 8.0 30
16/09/2020 7:30 20.2 60 233.2 600 0.0 2.0 7.2 38
16/09/2020 7:40 20.5 59 261.9 600 0.0 2.0 7.3 27
16/09/2020 7:50 20.9 58 290.8 600 0.0 2.3 8.2 25
16/09/2020 8:00 21.4 57 320.1 600 0.0 1.5 5.4 33
16/09/2020 8:10 22.0 56 347.5 600 0.0 1.5 5.2 31
16/09/2020 8:20 22.8 53 375.1 600 0.0 0.4 1.3 28
16/09/2020 8:30 24.1 49 402.2 600 0.0 0.3 1.2 180
16/09/2020 8:40 24.3 48 429.5 600 0.0 0.9 3.3 201
16/09/2020 8:50 24.5 49 459.2 600 0.0 1.3 4.6 193
16/09/2020 9:00 24.8 49 488.9 600 0.0 1.1 4.1 206
16/09/2020 9:10 24.7 49 508.3 600 0.0 1.7 6.0 196
16/09/2020 9:20 25.2 49 539.7 600 0.0 1.5 5.3 210
16/09/2020 9:30 25.6 48 564.8 600 0.0 1.3 4.7 205
16/09/2020 9:40 25.7 47 588.7 600 0.0 1.7 6.2 191
16/09/2020 9:50 25.9 48 610.0 600 0.0 1.6 5.7 179
16/09/2020 10:00 26.2 47 633.5 600 0.0 1.2 4.4 210
16/09/2020 10:10 26.8 45 653.1 600 0.0 2.0 7.1 165
16/09/2020 10:20 27.3 45 667.3 600 0.0 1.8 6.6 202
16/09/2020 10:30 27.6 44 684.7 600 0.0 2.3 8.4 188
16/09/2020 10:40 27.6 44 699.9 600 0.0 2.5 8.9 191
16/09/2020 10:50 27.7 43 712.0 600 0.0 2.1 7.4 182
16/09/2020 11:00 27.6 43 722.5 600 0.0 1.9 6.8 179
16/09/2020 11:10 28.2 42 731.9 600 0.0 2.3 8.1 187
16/09/2020 11:20 28.5 41 743.8 600 0.0 2.2 7.8 193
16/09/2020 11:30 28.4 41 753.0 600 0.0 2.2 7.8 144
16/09/2020 11:40 28.9 39 757.8 600 0.0 2.0 7.1 193
16/09/2020 11:50 29.2 38 758.4 600 0.0 2.3 8.2 193
16/09/2020 12:00 29.1 38 748.7 600 0.0 1.4 4.9 229
16/09/2020 12:10 29.5 37 751.5 600 0.0 1.5 5.3 204
16/09/2020 12:20 29.7 35 747.2 600 0.0 1.0 3.7 90
16/09/2020 12:30 29.9 36 718.8 600 0.0 1.1 4.0 124
16/09/2020 12:40 30.0 34 739.2 600 0.0 2.2 7.7 175
16/09/2020 12:50 30.7 32 728.1 600 0.0 1.3 4.7 220
16/09/2020 13:00 30.6 32 723.2 600 0.0 1.7 6.1 181
16/09/2020 13:10 30.1 32 698.4 600 0.0 1.0 3.6 126
16/09/2020 13:20 30.7 30 696.3 600 0.0 1.6 5.8 208
16/09/2020 13:30 30.9 28 700.3 600 0.0 0.9 3.3 186
16/09/2020 13:40 30.9 28 652.8 600 0.0 1.4 5.0 173
16/09/2020 13:50 30.8 26 656.8 600 0.0 2.0 7.0 128
16/09/2020 14:00 30.6 27 636.3 600 0.0 2.1 7.5 117
16/09/2020 14:10 30.5 27 598.6 600 0.0 0.6 2.1 129
16/09/2020 14:20 31.0 25 527.6 600 0.0 2.3 8.3 137
16/09/2020 14:30 30.9 25 486.4 600 0.0 1.7 5.9 149
16/09/2020 14:40 30.7 26 537.3 600 0.0 1.0 3.6 126
16/09/2020 14:50 31.0 26 451.4 422 0.0 1.2 4.3 123
16/09/2020 15:00 31.5 26 456.7 596 0.0 2.6 9.4 200
16/09/2020 15:10 31.4 25 405.5 588 0.0 2.3 8.3 219
16/09/2020 15:20 31.3 25 324.6 514 0.0 2.5 9.1 195
16/09/2020 15:30 30.8 26 196.0 0 0.0 2.3 8.4 187
16/09/2020 15:40 30.6 27 216.4 74 0.0 1.7 6.2 201
16/09/2020 15:50 30.9 26 280.0 600 0.0 0.8 2.9 192
16/09/2020 16:00 30.8 26 307.0 600 0.0 0.9 3.1 149
16/09/2020 16:10 31.0 26 373.9 600 0.0 1.1 4.1 201
16/09/2020 16:20 31.4 26 326.9 600 0.0 1.0 3.6 206
16/09/2020 16:30 31.6 25 262.5 600 0.0 0.8 2.9 220
16/09/2020 16:40 31.5 25 221.3 600 0.0 0.8 2.7 180
16/09/2020 16:50 30.8 27 182.4 600 0.0 0.5 1.6 101
16/09/2020 17:00 30.8 26 137.5 574 0.0 0.7 2.4 172
16/09/2020 17:10 30.6 27 82.0 0 0.0 0.8 2.9 199
16/09/2020 17:20 29.9 29 51.5 0 0.0 0.6 2.3 189
16/09/2020 17:30 29.2 30 39.9 0 0.0 0.9 3.1 225
16/09/2020 17:40 28.9 30 34.9 0 0.0 0.8 3.0 222
16/09/2020 17:50 28.2 31 25.7 0 0.0 0.4 1.5 248
16/09/2020 18:00 28.2 31 11.6 0 0.0 0.8 2.7 271
16/09/2020 18:10 27.7 32 0.0 0 0.0 1.5 5.4 306
16/09/2020 18:20 27.3 33 0.0 0 0.0 2.8 9.9 333
16/09/2020 18:30 26.6 33 0.0 0 0.0 1.3 4.8 320
16/09/2020 18:40 26.2 35 0.0 0 0.0 2.0 7.2 357
16/09/2020 18:50 26.7 35 0.0 0 0.0 1.9 6.8 1
16/09/2020 19:00 26.5 35 0.0 0 0.0 2.2 8.1 358
16/09/2020 19:10 26.2 36 0.0 0 0.0 2.2 8.0 356
16/09/2020 19:20 26.0 38 0.0 0 0.0 3.2 11.4 10
16/09/2020 19:30 25.7 41 0.0 0 0.0 3.4 12.3 14
16/09/2020 19:40 25.3 42 0.0 0 0.0 2.7 9.8 14
16/09/2020 19:50 24.9 43 0.0 0 0.0 2.5 9.1 8
16/09/2020 20:00 25.5 43 0.0 0 0.0 2.8 10.0 11
16/09/2020 20:10 25.8 43 0.0 0 0.0 3.5 12.4 13
16/09/2020 20:20 26.1 42 0.0 0 0.0 3.6 12.8 15
16/09/2020 20:30 26.1 42 0.0 0 0.0 3.7 13.4 16
16/09/2020 20:40 25.9 42 0.0 0 0.0 3.9 14.1 15
16/09/2020 20:50 25.7 43 0.0 0 0.0 3.6 12.8 18
16/09/2020 21:00 25.5 44 0.0 0 0.0 3.1 11.0 21
16/09/2020 21:10 25.2 45 0.0 0 0.0 2.9 10.5 19
16/09/2020 21:20 25.0 45 0.0 0 0.0 3.3 11.8 14
16/09/2020 21:30 25.0 45 0.0 0 0.0 2.8 10.0 11
16/09/2020 21:40 24.8 45 0.0 0 0.0 2.9 10.5 9
16/09/2020 21:50 24.8 45 0.0 0 0.0 3.3 11.7 12
16/09/2020 22:00 24.7 45 0.0 0 0.0 2.9 10.3 9
16/09/2020 22:10 24.7 45 0.0 0 0.0 3.1 11.1 11
16/09/2020 22:20 24.5 46 0.0 0 0.0 2.1 7.7 20
16/09/2020 22:30 24.3 46 0.0 0 0.0 2.8 9.9 16
16/09/2020 22:40 24.3 46 0.0 0 0.0 2.9 10.4 13
16/09/2020 22:50 24.3 45 0.0 0 0.0 2.8 10.0 16
16/09/2020 23:00 24.0 46 0.0 0 0.0 1.9 6.7 29
16/09/2020 23:10 23.8 47 0.0 0 0.0 1.6 5.7 33
16/09/2020 23:20 23.5 48 0.0 0 0.0 1.4 4.9 37
16/09/2020 23:30 23.4 48 0.0 0 0.0 1.1 4.1 35
16/09/2020 23:40 23.0 49 0.0 0 0.0 0.4 1.4 33
16/09/2020 23:50 23.1 49 0.0 0 0.0 0.9 3.2 50
Anterior Página 1 de 1 Siguiente

NOTA: Tipo de datos según el color:
   - Valores diarios o 10 minutos correctos
   - Valores diarios calculados a partir de un número de datos 10 minutos menor que 144 y mayor que 120, o de un número de datos semihorarios menor que 48 y mayor que 40 (caso de las estaciones de INTIA y del Ministerio)
   - Valores diez minutos estimados


Contacto        Enlaces        Aviso legal